ADDS METAR Data INFO
IDs: Format: Raw Decoded Include TAF

Data at: 1211 UTC 24 Feb 2018

METAR for:KIAH (Houston/Bush Intl, TX, US)
Text:KIAH 241153Z 17010KT 7SM FEW015 BKN028 OVC038 23/21 A2996 RMK AO2 SLP146 60001 70001 T02280206 10233 20228 55004 $
Temperature: 22.8°C ( 73°F)
Dewpoint: 20.6°C ( 69°F) [RH = 87%]
Pressure (altimeter):29.96 inches Hg (1014.6 mb) [Sea level pressure: 1014.6 mb]
Winds:from the S (170 degrees) at 12 MPH (10 knots; 5.1 m/s)
Visibility: 7 sm ( 11 km)
Ceiling:2800 feet AGL
Clouds: few clouds at 1500 feet AGL, broken clouds at 2800 feet AGL, overcast cloud deck at 3800 feet AGL
QC Flag:SOME DATA ABOVE MAY BE INACCURATE!!!"$" is an indication the sensor requires maintenance.

METAR for:KHOU (Houston/Hobby Arpt, TX, US)
Text:KHOU 241202Z 17007KT 10SM SCT013 BKN028 OVC033 22/22 A2997 RMK AO2 T02220217 $
Temperature: 22.2°C ( 72°F)
Dewpoint: 21.7°C ( 71°F) [RH = 97%]
Pressure (altimeter):29.97 inches Hg (1015.0 mb)
Winds:from the S (170 degrees) at 8 MPH (7 knots; 3.6 m/s)
Visibility:10 or more sm (16+ km)
Ceiling:2800 feet AGL
Clouds: scattered clouds at 1300 feet AGL, broken clouds at 2800 feet AGL, overcast cloud deck at 3300 feet AGL
QC Flag:SOME DATA ABOVE MAY BE INACCURATE!!!"$" is an indication the sensor requires maintenance.

METAR for:KGLS (Galveston/Scholes In, TX, US)
Text:KGLS 241152Z 15010KT 6SM BR OVC023 21/21 A2999 RMK AO2 SLP154 T02110206 10222 20211 55007
Temperature: 21.1°C ( 70°F)
Dewpoint: 20.6°C ( 69°F) [RH = 97%]
Pressure (altimeter):29.99 inches Hg (1015.7 mb) [Sea level pressure: 1015.4 mb]
Winds:from the SSE (150 degrees) at 12 MPH (10 knots; 5.1 m/s)
Visibility: 6 sm ( 10 km)
Ceiling:2300 feet AGL
Clouds: overcast cloud deck at 2300 feet AGL
Weather:BR (mist)

METAR for:KLVJ (Houston/Pearland Rgn, TX, US)
Text:KLVJ 241158Z AUTO 17008KT 7SM BKN008 BKN012 OVC021 22/22 A2999 RMK AO2 T02220217
Temperature: 22.2°C ( 72°F)
Dewpoint: 21.7°C ( 71°F) [RH = 97%]
Pressure (altimeter):29.99 inches Hg (1015.7 mb)
Winds:from the S (170 degrees) at 9 MPH (8 knots; 4.1 m/s)
Visibility: 7 sm ( 11 km)
Ceiling:800 feet AGL
Clouds: broken clouds at 800 feet AGL, broken clouds at 1200 feet AGL, overcast cloud deck at 2100 feet AGL
QC Flag:automated observation with no human augmentation

METAR for:KSGR (Houston/Sugar Land R, TX, US)
Text:KSGR 241153Z AUTO 18007KT 10SM BKN019 BKN037 OVC070 23/21 A2995 RMK AO2 SLP145 60001 70001 T02330206 10239 20233 56005
Temperature: 23.3°C ( 74°F)
Dewpoint: 20.6°C ( 69°F) [RH = 85%]
Pressure (altimeter):29.95 inches Hg (1014.3 mb) [Sea level pressure: 1014.5 mb]
Winds:from the S (180 degrees) at 8 MPH (7 knots; 3.6 m/s)
Visibility:10 or more sm (16+ km)
Ceiling:1900 feet AGL
Clouds: broken clouds at 1900 feet AGL, broken clouds at 3700 feet AGL, overcast cloud deck at 7000 feet AGL
QC Flag:automated observation with no human augmentation

METAR for:KDWH (Houston/Hooks Mem, TX, US)
Text:KDWH 241153Z 18006KT 10SM FEW030 OVC043 23/21 A2996 RMK AO2 SLP143 60000 T02280206 10228 20222 55006
Temperature: 22.8°C ( 73°F)
Dewpoint: 20.6°C ( 69°F) [RH = 87%]
Pressure (altimeter):29.96 inches Hg (1014.6 mb) [Sea level pressure: 1014.3 mb]
Winds:from the S (180 degrees) at 7 MPH (6 knots; 3.1 m/s)
Visibility:10 or more sm (16+ km)
Ceiling:4300 feet AGL
Clouds: few clouds at 3000 feet AGL, overcast cloud deck at 4300 feet AGL

METAR for:KCLL (College Station/East, TX, US)
Text:KCLL 241204Z AUTO 16010KT 6SM BR FEW007 BKN014 BKN025 21/21 A2993 RMK AO2 T02060206
Temperature: 20.6°C ( 69°F)
Dewpoint: 20.6°C ( 69°F) [RH = 100%]
Pressure (altimeter):29.93 inches Hg (1013.6 mb)
Winds:from the SSE (160 degrees) at 12 MPH (10 knots; 5.1 m/s)
Visibility: 6 sm ( 10 km)
Ceiling:1400 feet AGL
Clouds: few clouds at 700 feet AGL, broken clouds at 1400 feet AGL, broken clouds at 2500 feet AGL
Weather:BR (mist)
QC Flag:automated observation with no human augmentation

METAR for:KUTS (Huntsville Muni, TX, US)
Text:KUTS 241204Z AUTO 18009KT 8SM SCT010 SCT022 BKN042 22/20 A2996 RMK AO2 T02170200
Temperature: 21.7°C ( 71°F)
Dewpoint: 20.0°C ( 68°F) [RH = 90%]
Pressure (altimeter):29.96 inches Hg (1014.6 mb)
Winds:from the S (180 degrees) at 10 MPH (9 knots; 4.6 m/s)
Visibility: 8 sm ( 13 km)
Ceiling:4200 feet AGL
Clouds: scattered clouds at 1000 feet AGL, scattered clouds at 2200 feet AGL, broken clouds at 4200 feet AGL
QC Flag:automated observation with no human augmentation

METAR for:KCXO (Conroe/Executive Arp, TX, US)
Text:KCXO 241201Z 16008KT 10SM SCT016 BKN042 BKN065 21/21 A2996 RMK AO2 T02110211
Temperature: 21.1°C ( 70°F)
Dewpoint: 21.1°C ( 70°F) [RH = 100%]
Pressure (altimeter):29.96 inches Hg (1014.6 mb)
Winds:from the SSE (160 degrees) at 9 MPH (8 knots; 4.1 m/s)
Visibility:10 or more sm (16+ km)
Ceiling:4200 feet AGL
Clouds: scattered clouds at 1600 feet AGL, broken clouds at 4200 feet AGL, broken clouds at 6500 feet AGL

METAR for:KLBX (Angleton/Texas Gulf, TX, US)
Text:KLBX 241153Z AUTO 17010KT 9SM FEW011 FEW017 OVC027 22/21 A2997 RMK AO2 SLP147 T02220206 10233 20222 55005
Temperature: 22.2°C ( 72°F)
Dewpoint: 20.6°C ( 69°F) [RH = 91%]
Pressure (altimeter):29.97 inches Hg (1015.0 mb) [Sea level pressure: 1014.7 mb]
Winds:from the S (170 degrees) at 12 MPH (10 knots; 5.1 m/s)
Visibility: 9 sm ( 14 km)
Ceiling:2700 feet AGL
Clouds: few clouds at 1100 feet AGL, few clouds at 1700 feet AGL, overcast cloud deck at 2700 feet AGL
QC Flag:automated observation with no human augmentation

METAR for:KPSX (Palacios Muni, TX, US)
Text:KPSX 241153Z AUTO 15007KT 6SM BR FEW020 BKN026 21/21 A2994 RMK AO2 SLP139 T02110211 10222 20211 55002
Temperature: 21.1°C ( 70°F)
Dewpoint: 21.1°C ( 70°F) [RH = 100%]
Pressure (altimeter):29.94 inches Hg (1014.0 mb) [Sea level pressure: 1013.9 mb]
Winds:from the SSE (150 degrees) at 8 MPH (7 knots; 3.6 m/s)
Visibility: 6 sm ( 10 km)
Ceiling:2600 feet AGL
Clouds: few clouds at 2000 feet AGL, broken clouds at 2600 feet AGL
Weather:BR (mist)
QC Flag:automated observation with no human augmentation